KNEL/NEL METAR and TAF weather

Enter ICAO airport designator
Station Type Date Time Source
KNEL METAR 2020/01/23 15:00 UTC NOAA

KNEL 231500Z 00000KT 10SM CLR 02/M06 A3044 RMK AO2 SLP306 T00171056 51005 $


Station Type Date Time Source
KNEL Decoded METAR 2020/01/23 15:00 UTC NOAA

Lakehurst Naval Air Station, NJ, United States (KNEL) 40-02N 074-19W 24M
Jan 23, 2020 - 10:00 AM EST / 2020.01.23 1500 UTC
Wind: Calm:0
Visibility: 10 mile(s):0
Sky conditions: clear
Temperature: 35.1 F (1.7 C)
Dew Point: 21.9 F (-5.6 C)
Relative Humidity: 58%
Pressure (altimeter): 30.44 in. Hg (1030 hPa)
Pressure tendency: 0.01 inches (0.5 hPa) higher than three hours ago
ob: KNEL 231500Z 00000KT 10SM CLR 02/M06 A3044 RMK AO2 SLP306 T00171056 51005
cycle: 15

Station Type Date Time Source
KNEL TAF UTC NOAA

Error!

Example: see airport list